Tegucigalpa, Honduras
Current Conditions -  °F | °C
As of 12:00 PM on Thursday 30 Oct 2014 (Local Time) from MHTG Reporting Station
Rain Showers Rain Showers  
Wind Chill: 77°   Ceiling: 2800
Heat Index: 79°   Visibility: 5mi
Dew Point: 66°   Wind: 7mph
Humidity: 69%   Direction: 50°NE
Pressure: 30"   Gusts: NA
Location:  14.09°N, 87.22°W
Report Text: MHTG 301800Z 05006KT 8000 VCSH BKN028TCU 25/19 Q1016 A3000NOSIG
Loading
Personal Weather Stations






























Interactive Weather Map
Tropical Storm Tracking
New forecast layout! Learn more

10-Day Weather Forecast

Advertisements
Track Severe Weather on mobile